Time;durP1;ratioP1;P1;durP2;ratioP2;P2;SDS_P1;SDS_P2;PMS_P1;PMS_P2;Temp;Humidity;BMP_temperature;BMP_pressure;BME280_temperature;BME280_humidity;BME280_pressure;Samples;Min_cycle;Max_cycle;Signal;HPM_P1;HPM_P2
2023/09/07 00:00:46;;;;;;;4.55;4.15;;;;;;;;;;5007844;28;98900;-69
2023/09/07 00:03:13;;;;;;;5.57;4.65;;;;;;;;;;5008967;28;99629;-68
2023/09/07 00:05:39;;;;;;;4.82;4.32;;;;;;;;;;5010152;28;99912;-69
2023/09/07 00:08:06;;;;;;;4.20;3.90;;;;;;;;;;5007755;28;98940;-71
2023/09/07 00:10:35;;;;;;;7.47;3.92;;;;;;;;;;5007873;28;99715;-71
2023/09/07 00:13:02;;;;;;;5.18;4.68;;;;;;;;;;5006192;28;98897;-69
2023/09/07 00:15:29;;;;;;;6.30;4.90;;;;;;;;;;5010430;28;98985;-68
2023/09/07 00:17:56;;;;;;;8.63;5.25;;;;;;;;;;5009761;28;99109;-70
2023/09/07 00:20:23;;;;;;;4.25;3.85;;;;;;;;;;5010055;28;98866;-70
2023/09/07 00:22:50;;;;;;;5.05;4.53;;;;;;;;;;5011046;28;99579;-70
2023/09/07 00:25:16;;;;;;;4.65;4.22;;;;;;;;;;5012194;28;100100;-69
2023/09/07 00:27:43;;;;;;;4.65;4.35;;;;;;;;;;5010283;28;99890;-70
2023/09/07 00:30:09;;;;;;;7.03;4.97;;;;;;;;;;5012037;28;98161;-68
2023/09/07 00:32:37;;;;;;;5.68;4.93;;;;;;;;;;5010270;28;98405;-69
2023/09/07 00:35:10;;;;;;;4.95;4.20;;;;;;;;;;5012790;28;100052;-70
2023/09/07 00:37:37;;;;;;;4.68;4.22;;;;;;;;;;5014504;28;98317;-70
2023/09/07 00:40:04;;;;;;;5.43;4.93;;;;;;;;;;5009341;28;100334;-69
2023/09/07 00:42:30;;;;;;;5.07;4.55;;;;;;;;;;5010217;28;98231;-69
2023/09/07 00:44:57;;;;;;;5.30;4.90;;;;;;;;;;5008919;28;98747;-69
2023/09/07 00:47:23;;;;;;;5.45;5.10;;;;;;;;;;5011291;28;99061;-70
2023/09/07 00:49:50;;;;;;;7.43;5.32;;;;;;;;;;5013522;27;98205;-70
2023/09/07 00:52:17;;;;;;;6.53;5.57;;;;;;;;;;5012620;28;98242;-68
2023/09/07 00:54:43;;;;;;;5.88;5.38;;;;;;;;;;5010291;28;99580;-70
2023/09/07 00:57:10;;;;;;;5.38;4.97;;;;;;;;;;5010021;28;98484;-70
2023/09/07 00:59:37;;;;;;;5.43;3.95;;;;;;;;;;5012941;28;100850;-68
2023/09/07 01:02:05;;;;;;;4.95;4.60;;;;;;;;;;5001339;28;98361;-69
2023/09/07 01:04:33;;;;;;;6.03;4.90;;;;;;;;;;5042374;27;98494;-70
2023/09/07 01:07:03;;;;;;;6.07;5.25;;;;;;;;;;5011572;28;99046;-70
2023/09/07 01:09:32;;;;;;;5.25;4.75;;;;;;;;;;5009872;28;98508;-70
2023/09/07 01:11:58;;;;;;;6.53;5.00;;;;;;;;;;5009618;28;99649;-70
2023/09/07 01:14:24;;;;;;;5.68;5.10;;;;;;;;;;5008589;28;99227;-70
2023/09/07 01:16:51;;;;;;;5.75;5.15;;;;;;;;;;5043948;27;98948;-69
2023/09/07 01:19:18;;;;;;;6.20;5.60;;;;;;;;;;5009949;28;98465;-69
2023/09/07 01:21:45;;;;;;;6.43;5.15;;;;;;;;;;5014553;28;99572;-69
2023/09/07 01:24:13;;;;;;;6.80;6.10;;;;;;;;;;5010491;28;98794;-69
2023/09/07 01:26:40;;;;;;;6.95;5.82;;;;;;;;;;5008756;28;99029;-70
2023/09/07 01:29:08;;;;;;;10.20;5.78;;;;;;;;;;5011076;28;98297;-69
2023/09/07 01:31:36;;;;;;;5.63;5.22;;;;;;;;;;5008093;28;100939;-69
2023/09/07 01:34:02;;;;;;;5.88;5.28;;;;;;;;;;5009510;28;98702;-69
2023/09/07 01:36:29;;;;;;;5.75;5.28;;;;;;;;;;5011140;28;98239;-69
2023/09/07 01:38:56;;;;;;;11.80;5.22;;;;;;;;;;5008877;28;98285;-69
2023/09/07 01:41:22;;;;;;;5.95;5.38;;;;;;;;;;5009467;28;98673;-71
2023/09/07 01:43:49;;;;;;;8.25;5.10;;;;;;;;;;5014740;28;98241;-70
2023/09/07 01:46:15;;;;;;;5.63;5.28;;;;;;;;;;5008738;28;98893;-70
2023/09/07 01:48:42;;;;;;;6.03;5.53;;;;;;;;;;5043873;27;98330;-70
2023/09/07 01:51:08;;;;;;;7.28;5.88;;;;;;;;;;5010126;28;100316;-69
2023/09/07 01:53:35;;;;;;;7.88;6.10;;;;;;;;;;5009600;28;98913;-70
2023/09/07 01:56:01;;;;;;;6.28;5.78;;;;;;;;;;5008677;28;98307;-69
2023/09/07 01:58:28;;;;;;;6.90;6.00;;;;;;;;;;5042199;27;100571;-70
2023/09/07 02:00:59;;;;;;;9.75;5.97;;;;;;;;;;5042009;27;100804;-70
2023/09/07 02:03:26;;;;;;;7.47;6.10;;;;;;;;;;5012983;28;98278;-70
2023/09/07 02:05:53;;;;;;;7.10;6.45;;;;;;;;;;5009567;28;98784;-70
2023/09/07 02:08:20;;;;;;;8.18;6.05;;;;;;;;;;5004575;28;98911;-70
2023/09/07 02:10:47;;;;;;;9.95;6.32;;;;;;;;;;5003231;28;98365;-69
2023/09/07 02:13:13;;;;;;;6.55;5.95;;;;;;;;;;5002548;28;100940;-70
2023/09/07 02:15:40;;;;;;;10.25;6.63;;;;;;;;;;5005716;28;99159;-69
2023/09/07 02:18:06;;;;;;;6.78;6.15;;;;;;;;;;5008287;28;101313;-69
2023/09/07 02:20:33;;;;;;;6.80;6.03;;;;;;;;;;5011069;28;98663;-69
2023/09/07 02:23:00;;;;;;;7.18;6.47;;;;;;;;;;5011065;28;98200;-70
2023/09/07 02:25:27;;;;;;;6.72;6.22;;;;;;;;;;5014393;28;98353;-70
2023/09/07 02:27:54;;;;;;;6.47;6.03;;;;;;;;;;5010686;28;98259;-70
2023/09/07 02:30:21;;;;;;;7.72;6.93;;;;;;;;;;5029580;28;98149;-71
2023/09/07 02:32:47;;;;;;;8.38;6.80;;;;;;;;;;5031385;28;98858;-70
2023/09/07 02:35:14;;;;;;;7.10;6.60;;;;;;;;;;5021504;28;98225;-69
2023/09/07 02:37:40;;;;;;;8.52;6.85;;;;;;;;;;5010814;28;98936;-69
2023/09/07 02:40:08;;;;;;;6.43;5.95;;;;;;;;;;5009184;28;99155;-69
2023/09/07 02:42:35;;;;;;;9.15;6.70;;;;;;;;;;5008467;28;98026;-69
2023/09/07 02:45:02;;;;;;;8.15;6.90;;;;;;;;;;5011350;28;98688;-70
2023/09/07 02:47:28;;;;;;;7.13;6.15;;;;;;;;;;5020814;28;98914;-69
2023/09/07 02:49:55;;;;;;;9.50;6.30;;;;;;;;;;5009050;28;99048;-70
2023/09/07 02:52:22;;;;;;;7.18;6.47;;;;;;;;;;5009520;28;100227;-70
2023/09/07 02:54:49;;;;;;;6.43;5.93;;;;;;;;;;5000751;28;99610;-69
2023/09/07 02:57:16;;;;;;;7.22;6.15;;;;;;;;;;5033635;27;100463;-69
2023/09/07 02:59:43;;;;;;;7.13;5.75;;;;;;;;;;5002327;28;100875;-69
2023/09/07 03:02:10;;;;;;;6.78;6.18;;;;;;;;;;5009610;28;98318;-70
2023/09/07 03:04:37;;;;;;;6.63;6.13;;;;;;;;;;5010321;28;99481;-70
2023/09/07 03:07:03;;;;;;;6.43;5.85;;;;;;;;;;5003147;28;101723;-70
2023/09/07 03:09:30;;;;;;;7.78;6.68;;;;;;;;;;5005258;28;98374;-69
2023/09/07 03:11:56;;;;;;;8.48;5.95;;;;;;;;;;5002349;28;99726;-69
2023/09/07 03:14:24;;;;;;;7.90;6.85;;;;;;;;;;5000009;28;98242;-69
2023/09/07 03:16:51;;;;;;;6.68;5.90;;;;;;;;;;5037649;27;98965;-69
2023/09/07 03:19:17;;;;;;;10.90;6.90;;;;;;;;;;5003238;28;100014;-69
2023/09/07 03:21:44;;;;;;;12.07;6.40;;;;;;;;;;4997525;28;99010;-70
2023/09/07 03:24:11;;;;;;;7.18;6.57;;;;;;;;;;5002896;28;99319;-69
2023/09/07 03:26:37;;;;;;;6.95;6.25;;;;;;;;;;5005479;28;98657;-69
2023/09/07 03:29:04;;;;;;;12.60;6.70;;;;;;;;;;5002861;28;98544;-69
2023/09/07 03:31:30;;;;;;;7.45;6.45;;;;;;;;;;5005655;28;99696;-69
2023/09/07 03:33:57;;;;;;;8.82;6.43;;;;;;;;;;5010226;28;98126;-70
2023/09/07 03:36:24;;;;;;;6.85;6.35;;;;;;;;;;5008374;28;98568;-70
2023/09/07 03:38:50;;;;;;;7.00;6.50;;;;;;;;;;5002154;28;98995;-70
2023/09/07 03:41:17;;;;;;;7.93;6.35;;;;;;;;;;5003666;28;98479;-69
2023/09/07 03:43:45;;;;;;;6.95;6.30;;;;;;;;;;5002197;28;99107;-70
2023/09/07 03:46:11;;;;;;;7.82;6.30;;;;;;;;;;5003903;28;100834;-70
2023/09/07 03:48:38;;;;;;;7.57;6.57;;;;;;;;;;5015628;28;98322;-68
2023/09/07 03:51:07;;;;;;;6.57;6.07;;;;;;;;;;5017842;27;101671;-70
2023/09/07 03:53:34;;;;;;;6.53;6.03;;;;;;;;;;5003516;28;101298;-70
2023/09/07 03:56:01;;;;;;;6.70;6.20;;;;;;;;;;5007114;28;99648;-69
2023/09/07 03:58:28;;;;;;;6.90;6.30;;;;;;;;;;5005817;28;101120;-70
2023/09/07 04:00:58;;;;;;;5.78;5.28;;;;;;;;;;5005833;28;98381;-69
2023/09/07 04:03:24;;;;;;;11.32;5.95;;;;;;;;;;5010979;28;99521;-70
2023/09/07 04:05:51;;;;;;;6.30;5.80;;;;;;;;;;5011778;28;99241;-68
2023/09/07 04:08:17;;;;;;;6.05;5.65;;;;;;;;;;5011182;28;98534;-70
2023/09/07 04:10:44;;;;;;;6.68;6.07;;;;;;;;;;5016922;28;98477;-70
2023/09/07 04:13:11;;;;;;;7.28;6.68;;;;;;;;;;5006672;28;101240;-69
2023/09/07 04:15:41;;;;;;;7.35;6.65;;;;;;;;;;5006086;28;99560;-69
2023/09/07 04:18:08;;;;;;;6.75;6.18;;;;;;;;;;5006361;28;100051;-69
2023/09/07 04:20:35;;;;;;;7.32;6.70;;;;;;;;;;5008529;28;98387;-70
2023/09/07 04:23:02;;;;;;;7.93;7.22;;;;;;;;;;5006736;28;98691;-69
2023/09/07 04:25:28;;;;;;;7.60;6.82;;;;;;;;;;5005533;28;98897;-70
2023/09/07 04:27:56;;;;;;;7.47;6.72;;;;;;;;;;5001693;28;99060;-70
2023/09/07 04:30:22;;;;;;;7.38;6.78;;;;;;;;;;5003440;28;101109;-69
2023/09/07 04:32:51;;;;;;;7.93;7.13;;;;;;;;;;5004014;28;99568;-69
2023/09/07 04:35:18;;;;;;;7.78;7.18;;;;;;;;;;5014278;28;98344;-69
2023/09/07 04:37:45;;;;;;;9.60;7.00;;;;;;;;;;5010285;28;102067;-69
2023/09/07 04:40:11;;;;;;;9.60;7.18;;;;;;;;;;5004460;28;100065;-68
2023/09/07 04:42:38;;;;;;;7.28;6.47;;;;;;;;;;5002332;28;100561;-68
2023/09/07 04:45:05;;;;;;;9.43;7.18;;;;;;;;;;5004578;28;99058;-70
2023/09/07 04:47:32;;;;;;;8.65;7.80;;;;;;;;;;5005379;28;98278;-70
2023/09/07 04:49:59;;;;;;;10.43;7.85;;;;;;;;;;5003645;28;99904;-69
2023/09/07 04:52:25;;;;;;;8.23;7.53;;;;;;;;;;5005476;28;99330;-69
2023/09/07 04:54:52;;;;;;;10.20;7.68;;;;;;;;;;5006101;28;98306;-69
2023/09/07 04:57:18;;;;;;;11.70;7.97;;;;;;;;;;5008750;28;99803;-69
2023/09/07 04:59:46;;;;;;;8.40;7.40;;;;;;;;;;5041725;27;98227;-69
2023/09/07 05:02:13;;;;;;;7.80;7.20;;;;;;;;;;5003121;28;98562;-68
2023/09/07 05:04:39;;;;;;;8.43;6.55;;;;;;;;;;5008485;28;99415;-69
2023/09/07 05:07:06;;;;;;;9.90;7.55;;;;;;;;;;5011374;28;98480;-69
2023/09/07 05:09:33;;;;;;;7.68;6.85;;;;;;;;;;5009902;28;98624;-69
2023/09/07 05:11:59;;;;;;;8.30;7.22;;;;;;;;;;5008485;28;99809;-70
2023/09/07 05:14:26;;;;;;;7.82;7.22;;;;;;;;;;5006504;28;98892;-68
2023/09/07 05:16:53;;;;;;;8.20;7.40;;;;;;;;;;5039747;27;100228;-69
2023/09/07 05:19:19;;;;;;;9.52;7.18;;;;;;;;;;5009574;28;102995;-70
2023/09/07 05:21:46;;;;;;;13.00;7.20;;;;;;;;;;5007292;28;100993;-69
2023/09/07 05:24:13;;;;;;;10.10;7.57;;;;;;;;;;5004181;28;99328;-69
2023/09/07 05:26:39;;;;;;;8.90;7.93;;;;;;;;;;5004071;28;99328;-69
2023/09/07 05:29:06;;;;;;;8.40;7.50;;;;;;;;;;5006624;28;100454;-70
2023/09/07 05:31:32;;;;;;;8.13;7.43;;;;;;;;;;5002171;28;99735;-69
2023/09/07 05:34:00;;;;;;;10.98;7.43;;;;;;;;;;5006430;28;99646;-69
2023/09/07 05:36:27;;;;;;;7.80;7.00;;;;;;;;;;5006998;28;98635;-70
2023/09/07 05:38:53;;;;;;;8.75;7.80;;;;;;;;;;5005288;28;101317;-69
2023/09/07 05:41:20;;;;;;;9.75;7.30;;;;;;;;;;5008266;28;99096;-69
2023/09/07 05:43:46;;;;;;;7.97;7.10;;;;;;;;;;5006362;28;98957;-70
2023/09/07 05:46:13;;;;;;;8.32;7.53;;;;;;;;;;5004127;28;98168;-70
2023/09/07 05:48:40;;;;;;;7.68;6.97;;;;;;;;;;5006272;28;99370;-69
2023/09/07 05:51:07;;;;;;;7.25;6.57;;;;;;;;;;5034084;27;100899;-68
2023/09/07 05:53:33;;;;;;;6.50;6.05;;;;;;;;;;5007869;28;98499;-69
2023/09/07 05:55:59;;;;;;;7.60;6.85;;;;;;;;;;5010507;28;101115;-69
2023/09/07 05:58:27;;;;;;;9.68;5.40;;;;;;;;;;5011253;28;98699;-70
2023/09/07 06:00:53;;;;;;;5.60;5.05;;;;;;;;;;5009796;28;98319;-70
2023/09/07 06:03:20;;;;;;;11.70;6.00;;;;;;;;;;5012428;28;101028;-70
2023/09/07 06:05:47;;;;;;;5.90;5.40;;;;;;;;;;5009423;28;98790;-70
2023/09/07 06:08:13;;;;;;;6.38;5.78;;;;;;;;;;5007722;28;100810;-70
2023/09/07 06:10:40;;;;;;;10.60;6.40;;;;;;;;;;5012138;28;99798;-71
2023/09/07 06:13:07;;;;;;;8.95;5.57;;;;;;;;;;5010189;28;98271;-71
2023/09/07 06:15:34;;;;;;;5.47;4.82;;;;;;;;;;5008071;28;98688;-71
2023/09/07 06:18:01;;;;;;;6.72;6.22;;;;;;;;;;5000074;28;99727;-70
2023/09/07 06:20:27;;;;;;;6.65;5.95;;;;;;;;;;5001429;28;98911;-70
2023/09/07 06:22:56;;;;;;;5.78;5.28;;;;;;;;;;5015283;28;101122;-70
2023/09/07 06:25:23;;;;;;;8.00;6.55;;;;;;;;;;4996546;28;99775;-70
2023/09/07 06:27:50;;;;;;;5.88;5.38;;;;;;;;;;5010104;28;99905;-70
2023/09/07 06:30:17;;;;;;;6.80;6.20;;;;;;;;;;5042860;27;100047;-69
2023/09/07 06:32:44;;;;;;;10.73;6.45;;;;;;;;;;5009678;28;98276;-70
2023/09/07 06:35:11;;;;;;;7.20;6.40;;;;;;;;;;5010569;28;98758;-71
2023/09/07 06:37:40;;;;;;;11.02;6.90;;;;;;;;;;4989126;28;100980;-70
2023/09/07 06:40:09;;;;;;;6.53;5.78;;;;;;;;;;4989134;28;98255;-70
2023/09/07 06:42:36;;;;;;;7.88;6.10;;;;;;;;;;5003771;28;98440;-70
2023/09/07 06:45:08;;;;;;;7.68;5.25;;;;;;;;;;5046417;27;98790;-70
2023/09/07 06:47:35;;;;;;;7.18;6.57;;;;;;;;;;5009545;28;101133;-70
2023/09/07 06:50:04;;;;;;;17.83;6.72;;;;;;;;;;5007374;28;100883;-69
2023/09/07 06:52:31;;;;;;;7.63;6.95;;;;;;;;;;5009346;28;98359;-71
2023/09/07 06:54:58;;;;;;;6.90;6.18;;;;;;;;;;5043303;27;99407;-71
2023/09/07 06:57:24;;;;;;;9.00;5.07;;;;;;;;;;5008233;28;100789;-69
2023/09/07 06:59:51;;;;;;;7.47;6.32;;;;;;;;;;5009743;28;98159;-69
2023/09/07 07:02:18;;;;;;;13.40;7.50;;;;;;;;;;4998393;28;100799;-70
2023/09/07 07:04:46;;;;;;;15.35;6.50;;;;;;;;;;5002551;28;103101;-69
2023/09/07 07:07:14;;;;;;;6.55;5.93;;;;;;;;;;5008857;28;98264;-70
2023/09/07 07:09:41;;;;;;;9.25;6.80;;;;;;;;;;5001222;28;98794;-70
2023/09/07 07:12:07;;;;;;;8.23;5.70;;;;;;;;;;5036586;27;98197;-69
2023/09/07 07:14:36;;;;;;;7.57;6.78;;;;;;;;;;5007649;28;101366;-68
2023/09/07 07:17:04;;;;;;;8.43;6.78;;;;;;;;;;5006493;28;99961;-69
2023/09/07 07:19:32;;;;;;;7.25;6.55;;;;;;;;;;5005561;28;99569;-68
2023/09/07 07:22:01;;;;;;;12.05;6.88;;;;;;;;;;5005279;28;98659;-69
2023/09/07 07:24:28;;;;;;;7.20;6.15;;;;;;;;;;4999891;28;100019;-70
2023/09/07 07:26:55;;;;;;;7.80;6.97;;;;;;;;;;5001085;28;99145;-71
2023/09/07 07:29:21;;;;;;;11.75;6.15;;;;;;;;;;5039826;27;100325;-70
2023/09/07 07:31:48;;;;;;;9.10;7.03;;;;;;;;;;5002438;28;98888;-69
2023/09/07 07:34:15;;;;;;;8.55;6.82;;;;;;;;;;5010330;28;100004;-70
2023/09/07 07:36:43;;;;;;;7.13;6.45;;;;;;;;;;5007343;28;101308;-70
2023/09/07 07:39:09;;;;;;;8.20;6.82;;;;;;;;;;5012018;28;98217;-69
2023/09/07 07:41:37;;;;;;;9.50;6.97;;;;;;;;;;5013180;28;100902;-71
2023/09/07 07:44:06;;;;;;;11.90;6.57;;;;;;;;;;5013450;28;98998;-70
2023/09/07 07:46:33;;;;;;;6.35;5.85;;;;;;;;;;5012784;28;98606;-70
2023/09/07 07:48:59;;;;;;;7.50;6.63;;;;;;;;;;5014430;28;98333;-70
2023/09/07 07:51:26;;;;;;;13.30;5.90;;;;;;;;;;5016717;28;98788;-70
2023/09/07 07:53:55;;;;;;;6.80;6.20;;;;;;;;;;5011078;28;98382;-70
2023/09/07 07:56:23;;;;;;;9.35;5.88;;;;;;;;;;5027218;28;101717;-70
2023/09/07 07:58:51;;;;;;;8.02;6.32;;;;;;;;;;5011437;28;98264;-70
2023/09/07 08:01:20;;;;;;;6.05;5.53;;;;;;;;;;5011983;28;100860;-70
2023/09/07 08:03:48;;;;;;;6.50;5.93;;;;;;;;;;5012328;28;101661;-70
2023/09/07 08:06:15;;;;;;;6.75;6.13;;;;;;;;;;5011024;28;98305;-70
2023/09/07 08:08:42;;;;;;;12.52;6.00;;;;;;;;;;5012503;28;101115;-70
2023/09/07 08:11:09;;;;;;;6.20;5.70;;;;;;;;;;5011793;28;101964;-70
2023/09/07 08:13:39;;;;;;;9.10;5.72;;;;;;;;;;5014996;28;99037;-71
2023/09/07 08:16:06;;;;;;;7.22;5.95;;;;;;;;;;5013452;28;98683;-70
2023/09/07 08:18:33;;;;;;;6.03;5.25;;;;;;;;;;5013254;28;98241;-69
2023/09/07 08:21:02;;;;;;;7.07;5.35;;;;;;;;;;5010874;28;98799;-71
2023/09/07 08:23:28;;;;;;;13.55;6.00;;;;;;;;;;5016472;28;101817;-69
2023/09/07 08:25:55;;;;;;;7.18;5.38;;;;;;;;;;5015277;28;98188;-69
2023/09/07 08:28:25;;;;;;;8.13;6.18;;;;;;;;;;5007625;28;101323;-70
2023/09/07 08:30:54;;;;;;;7.00;5.63;;;;;;;;;;5008710;28;99006;-69
2023/09/07 08:33:28;;;;;;;8.05;5.50;;;;;;;;;;5014040;28;98265;-71
2023/09/07 08:35:56;;;;;;;6.53;5.43;;;;;;;;;;4992518;28;99923;-69
2023/09/07 08:38:27;;;;;;;8.90;5.00;;;;;;;;;;5000971;28;98273;-70
2023/09/07 08:40:55;;;;;;;9.27;5.65;;;;;;;;;;5012125;28;98620;-70
2023/09/07 08:43:23;;;;;;;9.20;5.20;;;;;;;;;;5011896;28;99041;-69
2023/09/07 08:45:51;;;;;;;5.50;5.00;;;;;;;;;;5013095;28;97981;-71
2023/09/07 08:48:18;;;;;;;13.25;5.18;;;;;;;;;;5009390;28;99328;-71
2023/09/07 08:50:49;;;;;;;4.95;4.55;;;;;;;;;;5012292;28;99039;-71
2023/09/07 08:53:17;;;;;;;9.57;5.03;;;;;;;;;;5012719;28;98833;-69
2023/09/07 08:55:44;;;;;;;11.82;4.55;;;;;;;;;;5013540;28;99569;-69
2023/09/07 08:58:10;;;;;;;4.90;4.50;;;;;;;;;;5012646;28;98201;-71
2023/09/07 09:00:37;;;;;;;5.40;4.38;;;;;;;;;;5012601;28;98791;-69
2023/09/07 09:03:04;;;;;;;5.25;4.00;;;;;;;;;;5011685;28;99182;-70
2023/09/07 09:05:31;;;;;;;6.15;3.90;;;;;;;;;;5012583;28;98192;-70
2023/09/07 09:08:04;;;;;;;9.93;3.75;;;;;;;;;;5012337;28;98637;-70
2023/09/07 09:10:31;;;;;;;6.97;4.20;;;;;;;;;;5011419;28;100990;-69
2023/09/07 09:12:59;;;;;;;6.95;3.45;;;;;;;;;;5012249;28;98223;-69
2023/09/07 09:15:28;;;;;;;4.63;3.40;;;;;;;;;;5012146;28;99400;-70
2023/09/07 09:17:55;;;;;;;4.90;4.10;;;;;;;;;;5014769;28;99931;-69
2023/09/07 09:20:25;;;;;;;14.38;3.45;;;;;;;;;;5014874;28;98010;-70
2023/09/07 09:22:55;;;;;;;8.27;3.72;;;;;;;;;;5016319;28;99966;-70
2023/09/07 09:25:22;;;;;;;7.28;3.15;;;;;;;;;;5012487;28;99731;-69
2023/09/07 09:27:48;;;;;;;3.28;3.00;;;;;;;;;;5009472;28;99410;-72
2023/09/07 09:30:16;;;;;;;6.40;2.80;;;;;;;;;;5006106;28;100984;-70
2023/09/07 09:32:43;;;;;;;2.85;2.47;;;;;;;;;;5011766;28;98304;-70
2023/09/07 09:35:10;;;;;;;6.90;2.97;;;;;;;;;;5010504;28;99601;-70
2023/09/07 09:37:43;;;;;;;4.78;3.28;;;;;;;;;;5006812;28;99820;-70
2023/09/07 09:40:10;;;;;;;3.35;2.75;;;;;;;;;;4997889;28;98250;-70
2023/09/07 09:42:40;;;;;;;4.47;3.33;;;;;;;;;;5003030;28;98996;-70
2023/09/07 09:45:07;;;;;;;4.95;2.80;;;;;;;;;;5008123;28;98361;-70
2023/09/07 09:47:35;;;;;;;3.55;2.45;;;;;;;;;;5008835;28;99821;-70
2023/09/07 09:50:06;;;;;;;2.80;2.60;;;;;;;;;;5012070;28;99989;-70
2023/09/07 09:52:36;;;;;;;6.32;3.05;;;;;;;;;;5009834;28;98165;-70
2023/09/07 09:55:12;;;;;;;6.03;2.78;;;;;;;;;;5011623;28;98714;-70
2023/09/07 09:57:39;;;;;;;3.67;2.38;;;;;;;;;;5007981;28;99895;-69
2023/09/07 10:03:02;;;;;;;7.90;3.10;;;;;;;;;;5013598;28;99374;-71
2023/09/07 10:05:30;;;;;;;3.53;2.58;;;;;;;;;;5010889;28;98527;-72
2023/09/07 10:08:02;;;;;;;4.82;2.67;;;;;;;;;;5008886;28;99024;-70
2023/09/07 10:10:31;;;;;;;3.67;2.38;;;;;;;;;;5007984;28;100438;-69
2023/09/07 10:12:58;;;;;;;2.85;2.65;;;;;;;;;;4997233;28;98367;-69
2023/09/07 10:15:27;;;;;;;2.95;2.60;;;;;;;;;;5011177;28;99626;-70
2023/09/07 10:18:04;;;;;;;3.00;2.70;;;;;;;;;;5000437;28;98363;-70
2023/09/07 10:20:51;;;;;;;8.68;2.88;;;;;;;;;;4991907;28;98024;-70
2023/09/07 10:23:18;;;;;;;2.60;2.40;;;;;;;;;;4994541;28;98574;-70
2023/09/07 10:25:52;;;;;;;5.00;2.80;;;;;;;;;;5024278;28;98343;-70
2023/09/07 10:28:22;;;;;;;2.47;2.35;;;;;;;;;;5019110;27;98510;-70
2023/09/07 10:31:07;;;;;;;6.43;2.75;;;;;;;;;;5009135;28;99972;-69
2023/09/07 10:33:35;;;;;;;6.63;4.40;;;;;;;;;;5009395;28;98373;-71
2023/09/07 10:36:03;;;;;;;6.35;2.78;;;;;;;;;;5002503;28;99618;-68
2023/09/07 10:38:33;;;;;;;5.28;3.22;;;;;;;;;;5002861;28;100392;-68
2023/09/07 10:41:00;;;;;;;9.13;3.15;;;;;;;;;;5008850;28;98228;-70
2023/09/07 10:43:27;;;;;;;4.03;3.63;;;;;;;;;;4996944;28;98901;-70
2023/09/07 10:45:56;;;;;;;7.85;5.07;;;;;;;;;;4994138;28;98678;-70
2023/09/07 10:48:22;;;;;;;6.20;3.95;;;;;;;;;;4995326;28;98942;-70
2023/09/07 10:50:51;;;;;;;4.53;3.10;;;;;;;;;;5007507;28;99839;-70
2023/09/07 10:53:24;;;;;;;11.20;6.97;;;;;;;;;;5007050;28;99161;-71
2023/09/07 10:55:51;;;;;;;4.80;4.00;;;;;;;;;;5008945;28;99437;-70
2023/09/07 10:58:27;;;;;;;2.90;2.70;;;;;;;;;;5002795;28;99965;-71
2023/09/07 11:00:56;;;;;;;8.57;2.90;;;;;;;;;;5001737;28;98234;-70
2023/09/07 11:03:27;;;;;;;2.70;2.50;;;;;;;;;;5003850;28;98743;-68
2023/09/07 11:05:55;;;;;;;10.52;3.20;;;;;;;;;;5004947;28;99110;-70
2023/09/07 11:08:23;;;;;;;4.32;3.17;;;;;;;;;;5003637;28;100242;-70
2023/09/07 11:10:50;;;;;;;6.07;3.33;;;;;;;;;;5005096;28;99062;-67
2023/09/07 11:13:17;;;;;;;4.25;2.70;;;;;;;;;;5008125;28;99623;-68
2023/09/07 11:15:44;;;;;;;3.22;3.00;;;;;;;;;;5011763;28;99677;-69
2023/09/07 11:18:11;;;;;;;5.68;2.90;;;;;;;;;;5009911;28;100036;-71
2023/09/07 11:20:39;;;;;;;7.57;2.65;;;;;;;;;;5013797;28;98264;-70
2023/09/07 11:23:06;;;;;;;4.88;2.67;;;;;;;;;;5012250;28;98812;-70
2023/09/07 11:25:34;;;;;;;15.02;3.20;;;;;;;;;;5012329;28;100072;-69
2023/09/07 11:28:02;;;;;;;4.00;2.42;;;;;;;;;;5010677;28;98232;-69
2023/09/07 11:30:29;;;;;;;3.15;2.30;;;;;;;;;;5012932;28;98850;-69
2023/09/07 11:33:05;;;;;;;8.30;2.50;;;;;;;;;;5010876;28;98236;-69
2023/09/07 11:35:32;;;;;;;8.48;2.40;;;;;;;;;;5010234;28;98663;-69
2023/09/07 11:37:59;;;;;;;5.72;2.58;;;;;;;;;;5009755;28;98991;-69
2023/09/07 11:40:26;;;;;;;2.78;2.58;;;;;;;;;;5012080;28;98561;-69
2023/09/07 11:42:52;;;;;;;2.78;2.50;;;;;;;;;;5010725;28;99195;-70
2023/09/07 11:45:19;;;;;;;3.35;2.30;;;;;;;;;;5008643;28;98875;-70
2023/09/07 11:47:46;;;;;;;5.80;2.60;;;;;;;;;;5009248;28;98502;-70
2023/09/07 11:50:12;;;;;;;3.75;2.47;;;;;;;;;;5008029;28;98570;-69
2023/09/07 11:52:39;;;;;;;5.78;2.63;;;;;;;;;;4993340;28;99258;-69
2023/09/07 11:55:05;;;;;;;2.65;2.40;;;;;;;;;;4991501;28;98533;-70
2023/09/07 11:57:32;;;;;;;5.70;2.42;;;;;;;;;;4994850;28;99256;-69
2023/09/07 11:59:58;;;;;;;5.45;2.45;;;;;;;;;;5001039;28;98336;-70
2023/09/07 12:02:26;;;;;;;5.05;3.30;;;;;;;;;;5009589;27;98865;-70
2023/09/07 12:04:54;;;;;;;3.90;2.67;;;;;;;;;;5004283;28;99287;-70
2023/09/07 12:07:21;;;;;;;6.90;2.45;;;;;;;;;;4989108;28;98802;-70
2023/09/07 12:09:48;;;;;;;4.10;3.03;;;;;;;;;;4990304;28;99453;-69
2023/09/07 12:12:14;;;;;;;6.00;2.58;;;;;;;;;;4988019;28;98109;-69
2023/09/07 12:14:41;;;;;;;3.15;2.60;;;;;;;;;;4993550;28;99050;-68
2023/09/07 12:17:07;;;;;;;5.95;2.45;;;;;;;;;;5002457;28;98730;-69
2023/09/07 12:19:34;;;;;;;7.32;2.97;;;;;;;;;;4995037;27;98255;-70
2023/09/07 12:22:01;;;;;;;7.05;3.28;;;;;;;;;;4996976;28;98720;-68
2023/09/07 12:24:27;;;;;;;6.38;2.70;;;;;;;;;;5006541;28;100222;-70
2023/09/07 12:26:54;;;;;;;3.95;3.10;;;;;;;;;;4996327;28;98362;-69
2023/09/07 12:29:21;;;;;;;2.65;2.30;;;;;;;;;;4992727;28;98618;-70
2023/09/07 12:31:48;;;;;;;3.13;2.55;;;;;;;;;;4992721;28;98867;-68
2023/09/07 12:34:14;;;;;;;2.40;2.20;;;;;;;;;;4995805;28;98338;-68
2023/09/07 12:36:41;;;;;;;3.22;2.60;;;;;;;;;;4994998;28;99087;-69
2023/09/07 12:39:07;;;;;;;2.53;2.30;;;;;;;;;;5013545;28;98215;-69
2023/09/07 12:41:34;;;;;;;3.97;2.60;;;;;;;;;;5012173;28;98434;-69
2023/09/07 12:44:00;;;;;;;10.45;2.50;;;;;;;;;;5012703;28;99965;-70
2023/09/07 12:46:30;;;;;;;6.68;3.22;;;;;;;;;;5012066;28;99391;-69
2023/09/07 12:48:57;;;;;;;2.65;2.40;;;;;;;;;;5012457;28;98671;-69
2023/09/07 12:51:23;;;;;;;2.97;2.60;;;;;;;;;;5021001;28;99048;-69
2023/09/07 12:53:51;;;;;;;2.83;2.40;;;;;;;;;;5033047;27;98265;-69
2023/09/07 12:56:18;;;;;;;2.20;2.10;;;;;;;;;;5034324;27;98970;-69
2023/09/07 12:58:45;;;;;;;3.22;2.50;;;;;;;;;;5032769;27;98240;-70
2023/09/07 13:01:15;;;;;;;2.70;2.25;;;;;;;;;;5031994;27;99107;-70
2023/09/07 13:03:41;;;;;;;3.88;2.80;;;;;;;;;;5032315;28;100305;-69
2023/09/07 13:06:08;;;;;;;5.18;1.92;;;;;;;;;;5032934;27;98201;-69
2023/09/07 13:08:34;;;;;;;6.13;2.75;;;;;;;;;;5031370;28;99378;-69
2023/09/07 13:11:02;;;;;;;2.25;2.13;;;;;;;;;;5010550;28;98955;-69
2023/09/07 13:13:29;;;;;;;2.33;2.13;;;;;;;;;;5011108;28;98189;-70
2023/09/07 13:15:56;;;;;;;3.42;2.67;;;;;;;;;;5012745;28;98566;-70
2023/09/07 13:18:22;;;;;;;2.85;2.40;;;;;;;;;;5017768;28;98112;-70
2023/09/07 13:20:51;;;;;;;2.85;2.58;;;;;;;;;;5014031;28;98719;-70
2023/09/07 13:23:18;;;;;;;4.18;2.70;;;;;;;;;;5011306;28;98945;-69
2023/09/07 13:25:44;;;;;;;2.83;2.63;;;;;;;;;;5012138;28;97922;-69
2023/09/07 13:28:11;;;;;;;2.45;2.25;;;;;;;;;;5012493;28;99319;-69
2023/09/07 13:30:37;;;;;;;3.67;2.53;;;;;;;;;;5011403;28;100016;-70
2023/09/07 13:33:04;;;;;;;2.80;2.42;;;;;;;;;;5012357;28;98081;-70
2023/09/07 13:35:30;;;;;;;4.95;2.40;;;;;;;;;;5011928;28;98530;-70
2023/09/07 13:37:57;;;;;;;2.70;2.50;;;;;;;;;;5010869;28;99185;-69
2023/09/07 13:40:24;;;;;;;3.92;2.70;;;;;;;;;;5014373;28;99812;-69
2023/09/07 13:42:50;;;;;;;5.00;2.97;;;;;;;;;;5006238;28;100064;-70
2023/09/07 13:45:17;;;;;;;3.50;2.45;;;;;;;;;;4991002;28;100862;-70
2023/09/07 13:47:44;;;;;;;2.53;2.42;;;;;;;;;;4993181;28;99521;-69
2023/09/07 13:50:11;;;;;;;6.20;2.42;;;;;;;;;;4995283;28;99224;-69
2023/09/07 13:52:38;;;;;;;5.38;2.38;;;;;;;;;;5004465;28;98261;-69
2023/09/07 13:55:05;;;;;;;8.82;2.40;;;;;;;;;;5003171;28;98679;-70
2023/09/07 13:57:35;;;;;;;10.73;2.78;;;;;;;;;;4990778;28;100268;-69
2023/09/07 14:00:01;;;;;;;2.15;2.05;;;;;;;;;;4992053;28;98802;-69
2023/09/07 14:02:30;;;;;;;2.85;2.65;;;;;;;;;;5002755;28;98149;-69
2023/09/07 14:04:57;;;;;;;7.80;2.25;;;;;;;;;;5000148;28;98284;-69
2023/09/07 14:07:25;;;;;;;2.33;2.13;;;;;;;;;;4991390;28;98036;-69
2023/09/07 14:09:53;;;;;;;3.85;3.55;;;;;;;;;;4997397;28;98096;-69
2023/09/07 14:12:20;;;;;;;4.40;2.58;;;;;;;;;;4992617;28;98238;-69
2023/09/07 14:14:46;;;;;;;4.20;2.42;;;;;;;;;;5011730;28;99549;-69
2023/09/07 14:17:13;;;;;;;2.45;2.25;;;;;;;;;;5012370;27;100254;-69
2023/09/07 14:19:45;;;;;;;3.42;2.33;;;;;;;;;;5010916;28;98354;-70
2023/09/07 14:22:12;;;;;;;2.35;2.15;;;;;;;;;;5011612;28;98604;-69
2023/09/07 14:24:38;;;;;;;2.75;2.55;;;;;;;;;;5014336;28;99001;-69
2023/09/07 14:27:06;;;;;;;2.60;2.33;;;;;;;;;;5010918;28;99563;-68
2023/09/07 14:29:33;;;;;;;2.55;2.35;;;;;;;;;;5010576;28;99518;-70
2023/09/07 14:31:59;;;;;;;2.65;2.50;;;;;;;;;;5010371;28;98352;-68
2023/09/07 14:34:26;;;;;;;10.85;2.80;;;;;;;;;;5009940;28;99295;-70
2023/09/07 14:36:52;;;;;;;4.30;2.58;;;;;;;;;;5010121;28;99790;-70
2023/09/07 14:39:23;;;;;;;2.60;2.33;;;;;;;;;;5010230;28;98295;-69
2023/09/07 14:41:53;;;;;;;2.47;2.30;;;;;;;;;;5007672;28;99432;-70